Time,TemperatureF,DewpointF,PressureIn,WindDirection,WindDirectionDegrees,WindSpeedMPH,WindSpeedGustMPH,Humidity,HourlyPrecipIn,Conditions,Clouds,dailyrainin,SolarRadiationWatts/m^2,SoftwareType,DateUTC
2013-06-24 00:01:00,75.6,34.1,29.64,WNW,297,2.0,2.0,22,0.00,,,0.00,0,WeatherCatV1.11B39,2013-06-24 07:01:00,
2013-06-24 00:06:00,75.4,33.9,29.64,WNW,299,0.0,1.0,22,0.00,,,0.00,0,WeatherCatV1.11B39,2013-06-24 07:06:00,
2013-06-24 00:11:00,75.2,33.7,29.64,WNW,299,1.0,1.0,22,0.00,,,0.00,0,WeatherCatV1.11B39,2013-06-24 07:11:00,
2013-06-24 00:16:00,74.5,35.3,29.64,WNW,299,2.0,2.0,24,0.00,,,0.00,0,WeatherCatV1.11B39,2013-06-24 07:16:00,
2013-06-24 00:21:00,73.9,33.8,29.64,WNW,299,1.0,3.0,23,0.00,,,0.00,0,WeatherCatV1.11B39,2013-06-24 07:21:00,
2013-06-24 00:26:00,74.2,34.0,29.64,WNW,299,0.0,2.0,23,0.00,,,0.00,0,WeatherCatV1.11B39,2013-06-24 07:26:00,
2013-06-24 00:31:00,73.9,33.8,29.64,WSW,253,0.0,0.0,23,0.00,,,0.00,0,WeatherCatV1.11B39,2013-06-24 07:31:00,
2013-06-24 00:36:00,73.4,34.4,29.64,WSW,253,1.0,1.0,24,0.00,,,0.00,0,WeatherCatV1.11B39,2013-06-24 07:36:00,
2013-06-24 00:41:00,73.2,34.2,29.64,WSW,253,0.0,1.0,24,0.00,,,0.00,0,WeatherCatV1.11B39,2013-06-24 07:41:00,
2013-06-24 00:46:00,73.3,34.3,29.64,WSW,253,2.0,2.0,24,0.00,,,0.00,0,WeatherCatV1.11B39,2013-06-24 07:46:00,
2013-06-24 00:51:00,73.0,34.1,29.65,WSW,254,0.0,1.0,24,0.00,,,0.00,0,WeatherCatV1.11B39,2013-06-24 07:51:00,
2013-06-24 00:56:00,73.0,34.1,29.65,WSW,254,0.0,1.0,24,0.00,,,0.00,0,WeatherCatV1.11B39,2013-06-24 07:56:00,
2013-06-24 01:01:00,72.9,34.0,29.64,WSW,254,0.0,1.0,24,0.00,,,0.00,0,WeatherCatV1.11B39,2013-06-24 08:01:00,
2013-06-24 01:06:00,72.5,33.6,29.65,WSW,254,0.0,1.0,24,0.00,,,0.00,0,WeatherCatV1.11B39,2013-06-24 08:06:00,
2013-06-24 01:11:00,71.6,33.9,29.65,WSW,254,3.0,3.0,25,0.00,,,0.00,0,WeatherCatV1.11B39,2013-06-24 08:11:00,
2013-06-24 01:16:00,70.8,34.2,29.65,WSW,254,3.0,3.0,26,0.00,,,0.00,0,WeatherCatV1.11B39,2013-06-24 08:16:00,
2013-06-24 01:21:00,70.8,33.2,29.65,WSW,255,2.0,4.0,25,0.00,,,0.00,0,WeatherCatV1.11B39,2013-06-24 08:21:00,
2013-06-24 01:26:00,72.4,31.4,29.65,NW,313,3.0,3.0,22,0.00,,,0.00,0,WeatherCatV1.11B39,2013-06-24 08:26:00,
2013-06-24 01:31:00,74.3,30.6,29.65,NW,326,3.0,4.0,20,0.00,,,0.00,0,WeatherCatV1.11B39,2013-06-24 08:31:00,
2013-06-24 01:36:00,76.3,29.7,29.65,NNW,328,3.0,3.0,18,0.00,,,0.00,0,WeatherCatV1.11B39,2013-06-24 08:36:00,
2013-06-24 01:41:00,77.3,30.5,29.65,NNW,328,2.0,2.0,18,0.00,,,0.00,0,WeatherCatV1.11B39,2013-06-24 08:41:00,
2013-06-24 01:46:00,77.4,29.2,29.65,NNW,329,1.0,4.0,17,0.00,,,0.00,0,WeatherCatV1.11B39,2013-06-24 08:46:00,
2013-06-24 01:51:00,77.4,29.2,29.65,NNW,328,2.0,3.0,17,0.00,,,0.00,0,WeatherCatV1.11B39,2013-06-24 08:51:00,
2013-06-24 01:56:00,77.2,29.0,29.65,NNW,328,3.0,3.0,17,0.00,,,0.00,0,WeatherCatV1.11B39,2013-06-24 08:56:00,
2013-06-24 02:01:00,77.8,29.5,29.65,WNW,295,4.0,5.0,17,0.00,,,0.00,0,WeatherCatV1.11B39,2013-06-24 09:01:00,
2013-06-24 02:06:00,78.3,29.9,29.66,NW,317,3.0,4.0,17,0.00,,,0.00,0,WeatherCatV1.11B39,2013-06-24 09:06:00,
2013-06-24 02:11:00,78.1,29.7,29.66,WNW,294,2.0,3.0,17,0.00,,,0.00,0,WeatherCatV1.11B39,2013-06-24 09:11:00,
2013-06-24 02:16:00,77.4,30.6,29.66,WNW,294,3.0,3.0,18,0.00,,,0.00,0,WeatherCatV1.11B39,2013-06-24 09:16:00,
2013-06-24 02:21:00,77.1,30.3,29.66,WNW,297,5.0,5.0,18,0.00,,,0.00,0,WeatherCatV1.11B39,2013-06-24 09:21:00,
2013-06-24 02:26:00,76.4,31.1,29.66,NW,309,2.0,4.0,19,0.00,,,0.00,0,WeatherCatV1.11B39,2013-06-24 09:26:00,
2013-06-24 02:31:00,75.3,31.4,29.65,NW,309,3.0,4.0,20,0.00,,,0.00,0,WeatherCatV1.11B39,2013-06-24 09:31:00,
2013-06-24 02:36:00,74.3,31.8,29.65,NW,310,1.0,4.0,21,0.00,,,0.00,0,WeatherCatV1.11B39,2013-06-24 09:36:00,
2013-06-24 02:41:00,73.9,30.3,29.66,NW,311,0.0,2.0,20,0.00,,,0.00,0,WeatherCatV1.11B39,2013-06-24 09:41:00,
2013-06-24 02:46:00,74.1,31.7,29.65,NW,311,0.0,2.0,21,0.00,,,0.00,0,WeatherCatV1.11B39,2013-06-24 09:46:00,
2013-06-24 02:51:00,73.1,30.8,29.65,NW,311,3.0,4.0,21,0.00,,,0.00,0,WeatherCatV1.11B39,2013-06-24 09:51:00,
2013-06-24 02:56:00,72.2,31.2,29.65,NW,311,0.0,2.0,22,0.00,,,0.00,0,WeatherCatV1.11B39,2013-06-24 09:56:00,
2013-06-24 03:01:00,71.9,31.0,29.65,NW,311,0.0,0.0,22,0.00,,,0.00,0,WeatherCatV1.11B39,2013-06-24 10:01:00,
2013-06-24 03:06:00,71.3,31.6,29.65,NW,311,2.0,2.0,23,0.00,,,0.00,0,WeatherCatV1.11B39,2013-06-24 10:06:00,
2013-06-24 03:11:00,71.2,31.5,29.66,NW,311,0.0,3.0,23,0.00,,,0.00,0,WeatherCatV1.11B39,2013-06-24 10:11:00,
2013-06-24 03:16:00,70.6,32.0,29.66,NW,308,0.0,0.0,24,0.00,,,0.00,0,WeatherCatV1.11B39,2013-06-24 10:16:00,
2013-06-24 03:21:00,70.0,33.5,29.66,NW,308,0.0,0.0,26,0.00,,,0.00,0,WeatherCatV1.11B39,2013-06-24 10:21:00,
2013-06-24 03:26:00,69.4,33.0,29.66,NW,308,0.0,1.0,26,0.00,,,0.00,0,WeatherCatV1.11B39,2013-06-24 10:26:00,
2013-06-24 03:31:00,68.8,32.5,29.66,NW,308,0.0,1.0,26,0.00,,,0.00,0,WeatherCatV1.11B39,2013-06-24 10:31:00,
2013-06-24 03:36:00,68.6,32.3,29.66,NW,308,0.0,1.0,26,0.00,,,0.00,0,WeatherCatV1.11B39,2013-06-24 10:36:00,
2013-06-24 03:41:00,68.8,32.5,29.66,NW,310,0.0,1.0,26,0.00,,,0.00,0,WeatherCatV1.11B39,2013-06-24 10:41:00,
2013-06-24 03:46:00,68.2,32.9,29.66,NW,312,0.0,3.0,27,0.00,,,0.00,0,WeatherCatV1.11B39,2013-06-24 10:46:00,
2013-06-24 03:51:00,68.3,33.0,29.66,NW,312,2.0,2.0,27,0.00,,,0.00,0,WeatherCatV1.11B39,2013-06-24 10:51:00,
2013-06-24 03:56:00,68.2,32.9,29.66,NNW,331,4.0,4.0,27,0.00,,,0.00,0,WeatherCatV1.11B39,2013-06-24 10:56:00,
2013-06-24 04:01:00,68.1,31.9,29.66,NNW,331,1.0,2.0,26,0.00,,,0.00,0,WeatherCatV1.11B39,2013-06-24 11:01:00,
2013-06-24 04:06:00,67.9,31.7,29.66,NNW,331,1.0,2.0,26,0.00,,,0.00,0,WeatherCatV1.11B39,2013-06-24 11:06:00,
2013-06-24 04:11:00,67.6,32.4,29.66,NNW,331,3.0,4.0,27,0.00,,,0.00,0,WeatherCatV1.11B39,2013-06-24 11:11:00,
2013-06-24 04:16:00,67.3,33.1,29.67,NNW,331,2.0,2.0,28,0.00,,,0.00,0,WeatherCatV1.11B39,2013-06-24 11:16:00,
2013-06-24 04:21:00,67.5,32.3,29.67,NNW,331,0.0,0.0,27,0.00,,,0.00,0,WeatherCatV1.11B39,2013-06-24 11:21:00,
2013-06-24 04:26:00,67.2,32.1,29.67,NNW,331,1.0,1.0,27,0.00,,,0.00,0,WeatherCatV1.11B39,2013-06-24 11:26:00,
2013-06-24 04:31:00,67.1,32.9,29.67,NNW,331,0.0,0.0,28,0.00,,,0.00,0,WeatherCatV1.11B39,2013-06-24 11:31:00,
2013-06-24 04:36:00,66.7,33.4,29.67,NNW,331,0.0,1.0,29,0.00,,,0.00,0,WeatherCatV1.11B39,2013-06-24 11:36:00,
2013-06-24 04:41:00,66.6,33.3,29.67,NNW,331,0.0,1.0,29,0.00,,,0.00,0,WeatherCatV1.11B39,2013-06-24 11:41:00,
2013-06-24 04:46:00,66.4,33.2,29.68,NNW,331,0.0,0.0,29,0.00,,,0.00,0,WeatherCatV1.11B39,2013-06-24 11:46:00,
2013-06-24 04:51:00,65.9,33.6,29.68,NNW,331,0.0,1.0,30,0.00,,,0.00,0,WeatherCatV1.11B39,2013-06-24 11:51:00,
2013-06-24 04:56:00,65.8,33.5,29.68,NW,324,0.0,4.0,30,0.00,,,0.00,0,WeatherCatV1.11B39,2013-06-24 11:56:00,
2013-06-24 05:01:00,66.1,33.8,29.68,NW,324,1.0,1.0,30,0.00,,,0.00,0,WeatherCatV1.11B39,2013-06-24 12:01:00,
2013-06-24 05:06:00,66.2,33.8,29.68,NW,324,1.0,2.0,30,0.00,,,0.00,0,WeatherCatV1.11B39,2013-06-24 12:06:00,
2013-06-24 05:11:00,66.4,34.8,29.68,NW,324,1.0,3.0,31,0.00,,,0.00,0,WeatherCatV1.11B39,2013-06-24 12:11:00,
2013-06-24 05:16:00,67.6,34.2,29.68,NW,316,4.0,4.0,29,0.00,,,0.00,0,WeatherCatV1.11B39,2013-06-24 12:16:00,
2013-06-24 05:21:00,69.7,34.2,29.68,NW,316,2.0,2.0,27,0.00,,,0.00,0,WeatherCatV1.11B39,2013-06-24 12:21:00,
2013-06-24 05:26:00,70.1,35.5,29.68,NW,316,0.0,0.0,28,0.00,,,0.00,5,WeatherCatV1.11B39,2013-06-24 12:26:00,
2013-06-24 05:31:00,69.3,35.7,29.68,NW,316,0.0,1.0,29,0.00,,,0.00,7,WeatherCatV1.11B39,2013-06-24 12:31:00,
2013-06-24 05:36:00,69.2,36.4,29.69,NW,316,2.0,2.0,30,0.00,,,0.00,9,WeatherCatV1.11B39,2013-06-24 12:36:00,
2013-06-24 05:41:00,69.1,36.4,29.69,NW,316,0.0,0.0,30,0.00,,,0.00,12,WeatherCatV1.11B39,2013-06-24 12:41:00,
2013-06-24 05:46:00,68.4,37.4,29.69,NW,316,0.0,1.0,32,0.00,,,0.00,19,WeatherCatV1.11B39,2013-06-24 12:46:00,
2013-06-24 05:51:00,67.6,37.5,29.69,NW,316,0.0,1.0,33,0.00,,,0.00,33,WeatherCatV1.11B39,2013-06-24 12:51:00,
2013-06-24 05:56:00,68.0,39.3,29.69,NW,316,1.0,2.0,35,0.00,,,0.00,54,WeatherCatV1.11B39,2013-06-24 12:56:00,
2013-06-24 06:01:00,69.7,40.1,29.69,NW,316,0.0,1.0,34,0.00,,,0.00,67,WeatherCatV1.11B39,2013-06-24 13:01:00,
2013-06-24 06:06:00,71.7,39.4,29.69,NW,316,1.0,1.0,31,0.00,,,0.00,79,WeatherCatV1.11B39,2013-06-24 13:06:00,
2013-06-24 06:11:00,73.1,40.7,29.69,NW,316,3.0,3.0,31,0.00,,,0.00,98,WeatherCatV1.11B39,2013-06-24 13:11:00,
2013-06-24 06:16:00,74.5,41.0,29.69,NW,316,1.0,3.0,30,0.00,,,0.00,114,WeatherCatV1.11B39,2013-06-24 13:16:00,
2013-06-24 06:21:00,75.8,41.3,29.69,NW,321,1.0,3.0,29,0.00,,,0.00,132,WeatherCatV1.11B39,2013-06-24 13:21:00,
2013-06-24 06:26:00,77.0,41.4,29.69,NW,321,2.0,3.0,28,0.00,,,0.00,153,WeatherCatV1.11B39,2013-06-24 13:26:00,
2013-06-24 06:31:00,78.0,42.2,29.69,NW,321,2.0,3.0,28,0.00,,,0.00,169,WeatherCatV1.11B39,2013-06-24 13:31:00,
2013-06-24 06:36:00,78.9,42.1,29.70,NW,310,1.0,3.0,27,0.00,,,0.00,183,WeatherCatV1.11B39,2013-06-24 13:36:00,
2013-06-24 06:41:00,79.8,42.8,29.70,WNW,294,2.0,5.0,27,0.00,,,0.00,202,WeatherCatV1.11B39,2013-06-24 13:41:00,
2013-06-24 06:46:00,80.8,42.7,29.70,WNW,297,2.0,6.0,26,0.00,,,0.00,216,WeatherCatV1.11B39,2013-06-24 13:46:00,
2013-06-24 06:51:00,81.7,43.5,29.70,West,277,6.0,6.0,26,0.00,,,0.00,232,WeatherCatV1.11B39,2013-06-24 13:51:00,
2013-06-24 06:56:00,82.3,42.9,29.70,WNW,284,2.0,4.0,25,0.00,,,0.00,251,WeatherCatV1.11B39,2013-06-24 13:56:00,
2013-06-24 07:01:00,82.9,43.4,29.70,West,274,5.0,5.0,25,0.00,,,0.00,265,WeatherCatV1.11B39,2013-06-24 14:01:00,
2013-06-24 07:06:00,83.5,43.9,29.70,West,271,2.0,2.0,25,0.00,,,0.00,283,WeatherCatV1.11B39,2013-06-24 14:06:00,
2013-06-24 07:11:00,84.2,42.4,29.70,WNW,282,3.0,4.0,23,0.00,,,0.00,301,WeatherCatV1.11B39,2013-06-24 14:11:00,
2013-06-24 07:16:00,84.8,41.7,29.70,West,279,5.0,6.0,22,0.00,,,0.00,316,WeatherCatV1.11B39,2013-06-24 14:16:00,
2013-06-24 07:21:00,85.1,42.0,29.70,WNW,292,5.0,8.0,22,0.00,,,0.00,334,WeatherCatV1.11B39,2013-06-24 14:21:00,
2013-06-24 07:26:00,85.6,41.2,29.71,West,269,4.0,9.0,21,0.00,,,0.00,352,WeatherCatV1.11B39,2013-06-24 14:26:00,
2013-06-24 07:31:00,85.7,41.2,29.71,WNW,282,6.0,6.0,21,0.00,,,0.00,369,WeatherCatV1.11B39,2013-06-24 14:31:00,
2013-06-24 07:36:00,86.1,40.3,29.71,WSW,250,3.0,8.0,20,0.00,,,0.00,387,WeatherCatV1.11B39,2013-06-24 14:36:00,
2013-06-24 07:41:00,86.4,41.8,29.71,NW,319,5.0,6.0,21,0.00,,,0.00,404,WeatherCatV1.11B39,2013-06-24 14:41:00,
2013-06-24 07:46:00,86.6,40.7,29.71,West,266,3.0,8.0,20,0.00,,,0.00,420,WeatherCatV1.11B39,2013-06-24 14:46:00,
2013-06-24 07:51:00,86.8,40.9,29.71,WNW,282,2.0,6.0,20,0.00,,,0.00,436,WeatherCatV1.11B39,2013-06-24 14:51:00,
2013-06-24 07:56:00,87.2,39.9,29.71,West,264,4.0,5.0,19,0.00,,,0.00,455,WeatherCatV1.11B39,2013-06-24 14:56:00,
2013-06-24 08:01:00,87.3,38.6,29.72,WNW,294,5.0,6.0,18,0.00,,,0.00,471,WeatherCatV1.11B39,2013-06-24 15:01:00,
2013-06-24 08:06:00,87.4,40.1,29.72,WNW,284,4.0,8.0,19,0.00,,,0.00,485,WeatherCatV1.11B39,2013-06-24 15:06:00,
2013-06-24 08:11:00,87.8,39.0,29.72,WSW,245,6.0,7.0,18,0.00,,,0.00,503,WeatherCatV1.11B39,2013-06-24 15:11:00,
2013-06-24 08:16:00,88.0,37.7,29.72,WNW,286,7.0,9.0,17,0.00,,,0.00,519,WeatherCatV1.11B39,2013-06-24 15:16:00,
2013-06-24 08:21:00,87.9,37.6,29.72,WNW,289,5.0,12.0,17,0.00,,,0.00,536,WeatherCatV1.11B39,2013-06-24 15:21:00,
2013-06-24 08:26:00,88.3,37.9,29.72,WSW,238,3.0,6.0,17,0.00,,,0.00,554,WeatherCatV1.11B39,2013-06-24 15:26:00,
2013-06-24 08:31:00,88.7,38.3,29.72,West,277,6.0,7.0,17,0.00,,,0.00,570,WeatherCatV1.11B39,2013-06-24 15:31:00,
2013-06-24 08:36:00,88.7,36.7,29.72,WSW,255,2.0,5.0,16,0.00,,,0.00,582,WeatherCatV1.11B39,2013-06-24 15:36:00,
2013-06-24 08:41:00,89.4,37.3,29.72,NW,314,4.0,7.0,16,0.00,,,0.00,601,WeatherCatV1.11B39,2013-06-24 15:41:00,
2013-06-24 08:46:00,89.1,37.0,29.72,NNW,333,3.0,4.0,16,0.00,,,0.00,615,WeatherCatV1.11B39,2013-06-24 15:46:00,
2013-06-24 08:51:00,89.1,35.4,29.72,NW,319,2.0,9.0,15,0.00,,,0.00,629,WeatherCatV1.11B39,2013-06-24 15:51:00,
2013-06-24 08:56:00,89.5,35.7,29.72,West,280,7.0,7.0,15,0.00,,,0.00,647,WeatherCatV1.11B39,2013-06-24 15:56:00,
2013-06-24 09:01:00,89.9,34.3,29.72,West,271,3.0,8.0,14,0.00,,,0.00,659,WeatherCatV1.11B39,2013-06-24 16:01:00,
2013-06-24 09:06:00,89.7,34.1,29.72,WSW,254,3.0,6.0,14,0.00,,,0.00,671,WeatherCatV1.11B39,2013-06-24 16:06:00,
2013-06-24 09:11:00,90.1,34.5,29.72,NW,323,3.0,5.0,14,0.00,,,0.00,687,WeatherCatV1.11B39,2013-06-24 16:11:00,
2013-06-24 09:16:00,91.3,35.4,29.72,WNW,291,6.0,8.0,14,0.00,,,0.00,700,WeatherCatV1.11B39,2013-06-24 16:16:00,
2013-06-24 09:21:00,90.8,33.2,29.72,WNW,283,8.0,8.0,13,0.00,,,0.00,712,WeatherCatV1.11B39,2013-06-24 16:21:00,
2013-06-24 09:26:00,90.8,35.0,29.72,West,267,8.0,14.0,14,0.00,,,0.00,728,WeatherCatV1.11B39,2013-06-24 16:26:00,
2013-06-24 09:31:00,91.5,35.6,29.72,West,276,7.0,7.0,14,0.00,,,0.00,738,WeatherCatV1.11B39,2013-06-24 16:31:00,
2013-06-24 09:36:00,91.7,33.8,29.72,SW,227,4.0,7.0,13,0.00,,,0.00,752,WeatherCatV1.11B39,2013-06-24 16:36:00,
2013-06-24 09:41:00,91.7,35.7,29.72,West,275,0.0,5.0,14,0.00,,,0.00,765,WeatherCatV1.11B39,2013-06-24 16:41:00,
2013-06-24 09:46:00,91.4,33.6,29.72,WNW,288,3.0,4.0,13,0.00,,,0.00,777,WeatherCatV1.11B39,2013-06-24 16:46:00,
2013-06-24 09:51:00,91.7,35.7,29.72,SSW,210,5.0,9.0,14,0.00,,,0.00,788,WeatherCatV1.11B39,2013-06-24 16:51:00,
2013-06-24 09:56:00,91.7,33.8,29.72,NNW,327,4.0,5.0,13,0.00,,,0.00,803,WeatherCatV1.11B39,2013-06-24 16:56:00,
2013-06-24 10:01:00,91.8,33.9,29.72,WNW,286,7.0,9.0,13,0.00,,,0.00,812,WeatherCatV1.11B39,2013-06-24 17:01:00,
2013-06-24 10:06:00,91.6,35.6,29.72,West,274,2.0,6.0,14,0.00,,,0.00,823,WeatherCatV1.11B39,2013-06-24 17:06:00,
2013-06-24 10:11:00,93.1,34.9,29.72,SSE,153,1.0,7.0,13,0.00,,,0.00,835,WeatherCatV1.11B39,2013-06-24 17:11:00,
2013-06-24 10:16:00,93.8,33.5,29.72,SSW,209,4.0,5.0,12,0.00,,,0.00,846,WeatherCatV1.11B39,2013-06-24 17:16:00,
2013-06-24 10:21:00,93.7,33.4,29.72,WSW,250,4.0,7.0,12,0.00,,,0.00,854,WeatherCatV1.11B39,2013-06-24 17:21:00,
2013-06-24 10:26:00,94.9,34.3,29.72,SW,219,10.0,10.0,12,0.00,,,0.00,865,WeatherCatV1.11B39,2013-06-24 17:26:00,
2013-06-24 10:31:00,95.7,32.8,29.72,SW,228,6.0,9.0,11,0.00,,,0.00,872,WeatherCatV1.11B39,2013-06-24 17:31:00,
2013-06-24 10:36:00,95.6,32.7,29.72,WSW,246,8.0,14.0,11,0.00,,,0.00,884,WeatherCatV1.11B39,2013-06-24 17:36:00,
2013-06-24 10:41:00,95.7,32.8,29.72,SSW,200,7.0,11.0,11,0.00,,,0.00,895,WeatherCatV1.11B39,2013-06-24 17:41:00,
2013-06-24 10:46:00,95.1,32.3,29.72,WSW,245,6.0,8.0,11,0.00,,,0.00,904,WeatherCatV1.11B39,2013-06-24 17:46:00,
2013-06-24 10:51:00,95.4,32.5,29.71,SSE,160,7.0,11.0,11,0.00,,,0.00,912,WeatherCatV1.11B39,2013-06-24 17:51:00,
2013-06-24 10:56:00,95.2,32.4,29.71,WSW,238,6.0,8.0,11,0.00,,,0.00,918,WeatherCatV1.11B39,2013-06-24 17:56:00,
2013-06-24 11:01:00,95.4,32.5,29.71,West,267,4.0,11.0,11,0.00,,,0.00,921,WeatherCatV1.11B39,2013-06-24 18:01:00,
2013-06-24 11:06:00,96.4,33.3,29.71,SW,231,4.0,9.0,11,0.00,,,0.00,930,WeatherCatV1.11B39,2013-06-24 18:06:00,
2013-06-24 11:11:00,97.4,34.1,29.71,SSW,213,7.0,10.0,11,0.00,,,0.00,933,WeatherCatV1.11B39,2013-06-24 18:11:00,
2013-06-24 11:16:00,97.6,34.2,29.71,SSW,212,5.0,16.0,11,0.00,,,0.00,944,WeatherCatV1.11B39,2013-06-24 18:16:00,
2013-06-24 11:21:00,97.1,33.8,29.70,SW,228,4.0,7.0,11,0.00,,,0.00,946,WeatherCatV1.11B39,2013-06-24 18:21:00,
2013-06-24 11:26:00,97.2,33.9,29.70,SW,229,5.0,9.0,11,0.00,,,0.00,949,WeatherCatV1.11B39,2013-06-24 18:26:00,
2013-06-24 11:31:00,97.4,34.1,29.70,WSW,249,8.0,10.0,11,0.00,,,0.00,954,WeatherCatV1.11B39,2013-06-24 18:31:00,
2013-06-24 11:36:00,98.0,34.5,29.69,SW,234,6.0,9.0,11,0.00,,,0.00,960,WeatherCatV1.11B39,2013-06-24 18:36:00,
2013-06-24 11:41:00,99.1,33.0,29.69,WNW,286,2.0,6.0,10,0.00,,,0.00,969,WeatherCatV1.11B39,2013-06-24 18:41:00,
2013-06-24 11:46:00,99.1,33.0,29.69,SW,230,7.0,8.0,10,0.00,,,0.00,962,WeatherCatV1.11B39,2013-06-24 18:46:00,
2013-06-24 11:51:00,98.0,29.5,29.68,SSW,195,3.0,10.0,9,0.00,,,0.00,970,WeatherCatV1.11B39,2013-06-24 18:51:00,
2013-06-24 11:56:00,99.4,30.6,29.68,WSW,247,4.0,12.0,9,0.00,,,0.00,970,WeatherCatV1.11B39,2013-06-24 18:56:00,
2013-06-24 12:01:00,98.5,29.9,29.68,South,178,10.0,15.0,9,0.00,,,0.00,974,WeatherCatV1.11B39,2013-06-24 19:01:00,
2013-06-24 12:06:00,99.0,30.3,29.68,West,260,11.0,14.0,9,0.00,,,0.00,970,WeatherCatV1.11B39,2013-06-24 19:06:00,
2013-06-24 12:11:00,99.3,27.6,29.68,SW,217,7.0,16.0,8,0.00,,,0.00,986,WeatherCatV1.11B39,2013-06-24 19:11:00,
2013-06-24 12:16:00,99.3,27.6,29.68,South,183,7.0,10.0,8,0.00,,,0.00,984,WeatherCatV1.11B39,2013-06-24 19:16:00,
2013-06-24 12:21:00,100.4,25.2,29.67,SW,226,17.0,17.0,7,0.00,,,0.00,983,WeatherCatV1.11B39,2013-06-24 19:21:00,
2013-06-24 12:26:00,99.6,27.8,29.67,WSW,251,8.0,18.0,8,0.00,,,0.00,983,WeatherCatV1.11B39,2013-06-24 19:26:00,
2013-06-24 12:31:00,99.7,30.8,29.67,SW,225,14.0,21.0,9,0.00,,,0.00,983,WeatherCatV1.11B39,2013-06-24 19:31:00,
2013-06-24 12:36:00,99.7,30.8,29.67,West,273,8.0,17.0,9,0.00,,,0.00,979,WeatherCatV1.11B39,2013-06-24 19:36:00,
2013-06-24 12:41:00,99.8,28.0,29.67,SW,215,10.0,14.0,8,0.00,,,0.00,983,WeatherCatV1.11B39,2013-06-24 19:41:00,
2013-06-24 12:46:00,101.1,28.9,29.67,SW,224,4.0,13.0,8,0.00,,,0.00,981,WeatherCatV1.11B39,2013-06-24 19:46:00,
2013-06-24 12:51:00,100.7,28.6,29.67,SW,231,13.0,14.0,8,0.00,,,0.00,983,WeatherCatV1.11B39,2013-06-24 19:51:00,
2013-06-24 12:56:00,99.5,27.8,29.67,WSW,257,8.0,14.0,8,0.00,,,0.00,979,WeatherCatV1.11B39,2013-06-24 19:56:00,
2013-06-24 13:01:00,99.1,27.5,29.67,NW,312,7.0,9.0,8,0.00,,,0.00,972,WeatherCatV1.11B39,2013-06-24 20:01:00,
2013-06-24 13:06:00,100.5,31.4,29.67,WSW,238,12.0,18.0,9,0.00,,,0.00,972,WeatherCatV1.11B39,2013-06-24 20:06:00,
2013-06-24 13:11:00,100.4,31.3,29.66,WSW,243,6.0,13.0,9,0.00,,,0.00,967,WeatherCatV1.11B39,2013-06-24 20:11:00,
2013-06-24 13:16:00,100.6,31.5,29.66,SW,230,7.0,15.0,9,0.00,,,0.00,965,WeatherCatV1.11B39,2013-06-24 20:16:00,
2013-06-24 13:21:00,100.5,28.5,29.66,WNW,294,5.0,14.0,8,0.00,,,0.00,954,WeatherCatV1.11B39,2013-06-24 20:21:00,
2013-06-24 13:26:00,100.9,31.7,29.65,SW,219,5.0,12.0,9,0.00,,,0.00,956,WeatherCatV1.11B39,2013-06-24 20:26:00,
2013-06-24 13:31:00,101.4,29.2,29.65,SW,215,8.0,11.0,8,0.00,,,0.00,949,WeatherCatV1.11B39,2013-06-24 20:31:00,
2013-06-24 13:36:00,100.9,28.8,29.65,SW,226,10.0,16.0,8,0.00,,,0.00,947,WeatherCatV1.11B39,2013-06-24 20:36:00,
2013-06-24 13:41:00,100.3,31.2,29.65,WSW,250,6.0,11.0,9,0.00,,,0.00,937,WeatherCatV1.11B39,2013-06-24 20:41:00,
2013-06-24 13:46:00,101.3,29.1,29.65,WSW,245,9.0,16.0,8,0.00,,,0.00,933,WeatherCatV1.11B39,2013-06-24 20:46:00,
2013-06-24 13:51:00,101.9,29.5,29.65,West,265,15.0,15.0,8,0.00,,,0.00,928,WeatherCatV1.11B39,2013-06-24 20:51:00,
2013-06-24 13:56:00,100.5,31.4,29.65,WSW,240,8.0,14.0,9,0.00,,,0.00,918,WeatherCatV1.11B39,2013-06-24 20:56:00,
2013-06-24 14:01:00,100.5,28.5,29.65,SW,217,8.0,10.0,8,0.00,,,0.00,911,WeatherCatV1.11B39,2013-06-24 21:01:00,
2013-06-24 14:06:00,101.5,29.2,29.65,WSW,257,8.0,10.0,8,0.00,,,0.00,902,WeatherCatV1.11B39,2013-06-24 21:06:00,
2013-06-24 14:11:00,101.0,28.9,29.64,SW,220,4.0,10.0,8,0.00,,,0.00,896,WeatherCatV1.11B39,2013-06-24 21:11:00,
2013-06-24 14:16:00,102.0,29.6,29.64,WSW,257,6.0,15.0,8,0.00,,,0.00,886,WeatherCatV1.11B39,2013-06-24 21:16:00,
2013-06-24 14:21:00,102.7,30.1,29.64,West,259,8.0,13.0,8,0.00,,,0.00,875,WeatherCatV1.11B39,2013-06-24 21:21:00,
2013-06-24 14:26:00,102.6,30.0,29.64,SW,227,7.0,14.0,8,0.00,,,0.00,867,WeatherCatV1.11B39,2013-06-24 21:26:00,
2013-06-24 14:31:00,102.0,29.6,29.64,WNW,291,4.0,14.0,8,0.00,,,0.00,860,WeatherCatV1.11B39,2013-06-24 21:31:00,
2013-06-24 14:36:00,102.0,29.6,29.64,WSW,244,7.0,17.0,8,0.00,,,0.00,847,WeatherCatV1.11B39,2013-06-24 21:36:00,
2013-06-24 14:41:00,101.4,29.2,29.64,WNW,300,4.0,9.0,8,0.00,,,0.00,837,WeatherCatV1.11B39,2013-06-24 21:41:00,
2013-06-24 14:46:00,101.7,29.4,29.63,West,274,10.0,23.0,8,0.00,,,0.00,828,WeatherCatV1.11B39,2013-06-24 21:46:00,
2013-06-24 14:51:00,101.6,32.2,29.63,WSW,242,8.0,12.0,9,0.00,,,0.00,819,WeatherCatV1.11B39,2013-06-24 21:51:00,
2013-06-24 14:56:00,102.4,29.9,29.63,West,274,11.0,14.0,8,0.00,,,0.00,809,WeatherCatV1.11B39,2013-06-24 21:56:00,
2013-06-24 15:01:00,102.2,29.7,29.63,WSW,255,11.0,17.0,8,0.00,,,0.00,802,WeatherCatV1.11B39,2013-06-24 22:01:00,
2013-06-24 15:06:00,101.9,29.5,29.63,WNW,282,9.0,24.0,8,0.00,,,0.00,786,WeatherCatV1.11B39,2013-06-24 22:06:00,
2013-06-24 15:11:00,100.7,28.6,29.63,WNW,294,14.0,14.0,8,0.00,,,0.00,775,WeatherCatV1.11B39,2013-06-24 22:11:00,
2013-06-24 15:16:00,100.7,28.6,29.63,West,267,12.0,18.0,8,0.00,,,0.00,766,WeatherCatV1.11B39,2013-06-24 22:16:00,
2013-06-24 15:21:00,100.9,28.8,29.62,WSW,251,9.0,12.0,8,0.00,,,0.00,751,WeatherCatV1.11B39,2013-06-24 22:21:00,
2013-06-24 15:26:00,102.2,29.7,29.62,SW,225,15.0,19.0,8,0.00,,,0.00,740,WeatherCatV1.11B39,2013-06-24 22:26:00,
2013-06-24 15:31:00,102.8,26.9,29.62,WSW,253,7.0,14.0,7,0.00,,,0.00,729,WeatherCatV1.11B39,2013-06-24 22:31:00,
2013-06-24 15:36:00,101.9,26.3,29.62,West,267,6.0,17.0,7,0.00,,,0.00,715,WeatherCatV1.11B39,2013-06-24 22:36:00,
2013-06-24 15:41:00,101.6,26.1,29.62,West,279,15.0,15.0,7,0.00,,,0.00,705,WeatherCatV1.11B39,2013-06-24 22:41:00,
2013-06-24 15:46:00,101.2,25.8,29.62,West,280,11.0,11.0,7,0.00,,,0.00,693,WeatherCatV1.11B39,2013-06-24 22:46:00,
2013-06-24 15:51:00,102.2,22.8,29.62,WSW,241,7.0,23.0,6,0.00,,,0.00,622,WeatherCatV1.11B39,2013-06-24 22:51:00,
2013-06-24 15:56:00,101.1,25.7,29.61,WSW,247,11.0,16.0,7,0.00,,,0.00,636,WeatherCatV1.11B39,2013-06-24 22:56:00,
2013-06-24 16:01:00,101.3,25.8,29.62,WSW,247,7.0,22.0,7,0.00,,,0.00,647,WeatherCatV1.11B39,2013-06-24 23:01:00,
2013-06-24 16:06:00,101.5,26.0,29.61,West,263,12.0,19.0,7,0.00,,,0.00,638,WeatherCatV1.11B39,2013-06-24 23:06:00,
2013-06-24 16:11:00,101.8,26.2,29.61,WSW,257,9.0,20.0,7,0.00,,,0.00,624,WeatherCatV1.11B39,2013-06-24 23:11:00,
2013-06-24 16:16:00,101.4,22.2,29.61,WSW,247,10.0,17.0,6,0.00,,,0.00,547,WeatherCatV1.11B39,2013-06-24 23:16:00,
2013-06-24 16:21:00,100.9,21.9,29.61,WSW,247,6.0,20.0,6,0.00,,,0.00,591,WeatherCatV1.11B39,2013-06-24 23:21:00,
2013-06-24 16:26:00,101.0,22.0,29.61,West,268,10.0,15.0,6,0.00,,,0.00,577,WeatherCatV1.11B39,2013-06-24 23:26:00,
2013-06-24 16:31:00,100.3,21.5,29.61,West,266,10.0,16.0,6,0.00,,,0.00,557,WeatherCatV1.11B39,2013-06-24 23:31:00,
2013-06-24 16:36:00,100.2,21.4,29.61,WNW,284,14.0,20.0,6,0.00,,,0.00,547,WeatherCatV1.11B39,2013-06-24 23:36:00,
2013-06-24 16:41:00,100.3,21.5,29.61,WNW,286,9.0,20.0,6,0.00,,,0.00,529,WeatherCatV1.11B39,2013-06-24 23:41:00,
2013-06-24 16:46:00,100.2,25.1,29.61,WNW,296,8.0,19.0,7,0.00,,,0.00,503,WeatherCatV1.11B39,2013-06-24 23:46:00,
2013-06-24 16:51:00,100.0,21.2,29.61,WNW,282,16.0,16.0,6,0.00,,,0.00,492,WeatherCatV1.11B39,2013-06-24 23:51:00,
2013-06-24 16:56:00,99.7,24.7,29.60,West,277,8.0,19.0,7,0.00,,,0.00,489,WeatherCatV1.11B39,2013-06-24 23:56:00,
2013-06-24 17:01:00,99.8,21.1,29.60,WSW,251,7.0,17.0,6,0.00,,,0.00,473,WeatherCatV1.11B39,2013-06-25 00:01:00,
2013-06-24 17:06:00,99.8,21.1,29.60,West,273,15.0,17.0,6,0.00,,,0.00,455,WeatherCatV1.11B39,2013-06-25 00:06:00,
2013-06-24 17:11:00,99.3,20.8,29.60,WSW,256,10.0,16.0,6,0.00,,,0.00,436,WeatherCatV1.11B39,2013-06-25 00:11:00,
2013-06-24 17:16:00,99.5,20.9,29.61,SW,216,12.0,13.0,6,0.00,,,0.00,376,WeatherCatV1.11B39,2013-06-25 00:16:00,
2013-06-24 17:21:00,99.4,16.6,29.60,West,265,14.0,15.0,5,0.00,,,0.00,367,WeatherCatV1.11B39,2013-06-25 00:21:00,
2013-06-24 17:26:00,98.6,20.3,29.60,WSW,238,4.0,19.0,6,0.00,,,0.00,313,WeatherCatV1.11B39,2013-06-25 00:26:00,
2013-06-24 17:31:00,98.8,20.4,29.60,West,271,15.0,17.0,6,0.00,,,0.00,330,WeatherCatV1.11B39,2013-06-25 00:31:00,
2013-06-24 17:36:00,98.5,20.2,29.61,West,281,12.0,21.0,6,0.00,,,0.00,232,WeatherCatV1.11B39,2013-06-25 00:36:00,
2013-06-24 17:41:00,97.8,19.7,29.61,West,279,6.0,14.0,6,0.00,,,0.00,264,WeatherCatV1.11B39,2013-06-25 00:41:00,
2013-06-24 17:46:00,98.1,15.7,29.61,West,281,7.0,13.0,5,0.00,,,0.00,174,WeatherCatV1.11B39,2013-06-25 00:46:00,
2013-06-24 17:51:00,97.6,19.5,29.61,WSW,244,16.0,16.0,6,0.00,,,0.00,211,WeatherCatV1.11B39,2013-06-25 00:51:00,
2013-06-24 17:56:00,97.2,19.3,29.61,West,279,4.0,13.0,6,0.00,,,0.00,111,WeatherCatV1.11B39,2013-06-25 00:56:00,
2013-06-24 18:01:00,96.7,18.9,29.61,West,274,8.0,15.0,6,0.00,,,0.00,83,WeatherCatV1.11B39,2013-06-25 01:01:00,
2013-06-24 18:06:00,96.1,14.3,29.62,West,267,5.0,11.0,5,0.00,,,0.00,74,WeatherCatV1.11B39,2013-06-25 01:06:00,
2013-06-24 18:11:00,95.8,14.1,29.62,West,268,5.0,12.0,5,0.00,,,0.00,90,WeatherCatV1.11B39,2013-06-25 01:11:00,
2013-06-24 18:16:00,95.7,18.2,29.62,WSW,250,4.0,6.0,6,0.00,,,0.00,158,WeatherCatV1.11B39,2013-06-25 01:16:00,
2013-06-24 18:21:00,96.0,14.2,29.62,WSW,237,4.0,11.0,5,0.00,,,0.00,109,WeatherCatV1.11B39,2013-06-25 01:21:00,
2013-06-24 18:26:00,95.8,18.3,29.62,West,279,6.0,9.0,6,0.00,,,0.00,146,WeatherCatV1.11B39,2013-06-25 01:26:00,
2013-06-24 18:31:00,96.0,18.4,29.62,West,275,8.0,8.0,6,0.00,,,0.00,171,WeatherCatV1.11B39,2013-06-25 01:31:00,
2013-06-24 18:36:00,96.2,18.6,29.62,WSW,257,7.0,13.0,6,0.00,,,0.00,134,WeatherCatV1.11B39,2013-06-25 01:36:00,
2013-06-24 18:41:00,95.8,18.3,29.62,SW,222,6.0,9.0,6,0.00,,,0.00,72,WeatherCatV1.11B39,2013-06-25 01:41:00,
2013-06-24 18:46:00,95.3,17.9,29.63,SW,236,8.0,11.0,6,0.00,,,0.00,60,WeatherCatV1.11B39,2013-06-25 01:46:00,
2013-06-24 18:51:00,94.9,17.6,29.63,WSW,251,6.0,11.0,6,0.00,,,0.00,72,WeatherCatV1.11B39,2013-06-25 01:51:00,
2013-06-24 18:57:00,94.7,21.1,29.63,West,271,4.0,10.0,7,0.00,,,0.00,54,WeatherCatV1.11B39,2013-06-25 01:57:00,
2013-06-24 19:02:00,94.3,20.8,29.63,WSW,252,4.0,9.0,7,0.00,,,0.00,44,WeatherCatV1.11B39,2013-06-25 02:02:00,
2013-06-24 19:07:00,94.0,20.6,29.63,WSW,253,8.0,9.0,7,0.00,,,0.00,49,WeatherCatV1.11B39,2013-06-25 02:07:00,
2013-06-24 19:12:00,93.9,20.5,29.63,SW,228,3.0,9.0,7,0.00,,,0.00,42,WeatherCatV1.11B39,2013-06-25 02:12:00,
2013-06-24 19:17:00,93.7,20.4,29.63,WNW,286,8.0,15.0,7,0.00,,,0.00,30,WeatherCatV1.11B39,2013-06-25 02:17:00,
2013-06-24 19:22:00,93.4,23.3,29.64,WNW,299,6.0,11.0,8,0.00,,,0.00,19,WeatherCatV1.11B39,2013-06-25 02:22:00,
2013-06-24 19:27:00,93.0,25.8,29.64,WSW,250,4.0,7.0,9,0.00,,,0.00,12,WeatherCatV1.11B39,2013-06-25 02:27:00,
2013-06-24 19:32:00,92.6,25.5,29.64,West,271,8.0,12.0,9,0.00,,,0.00,0,WeatherCatV1.11B39,2013-06-25 02:32:00,
2013-06-24 19:37:00,92.2,25.2,29.64,WNW,284,5.0,11.0,9,0.00,,,0.00,0,WeatherCatV1.11B39,2013-06-25 02:37:00,
2013-06-24 19:42:00,92.1,25.2,29.64,West,280,8.0,14.0,9,0.00,,,0.00,0,WeatherCatV1.11B39,2013-06-25 02:42:00,
2013-06-24 19:47:00,91.9,27.5,29.64,WNW,293,6.0,8.0,10,0.00,,,0.00,0,WeatherCatV1.11B39,2013-06-25 02:47:00,
2013-06-24 19:52:00,91.4,27.2,29.65,West,273,8.0,8.0,10,0.00,,,0.00,0,WeatherCatV1.11B39,2013-06-25 02:52:00,
2013-06-24 19:57:00,91.1,26.9,29.65,NW,313,5.0,8.0,10,0.00,,,0.00,0,WeatherCatV1.11B39,2013-06-25 02:57:00,
2013-06-24 20:02:00,90.7,26.6,29.65,WNW,292,3.0,7.0,10,0.00,,,0.00,0,WeatherCatV1.11B39,2013-06-25 03:02:00,
2013-06-24 20:07:00,90.3,28.6,29.65,West,272,2.0,7.0,11,0.00,,,0.00,0,WeatherCatV1.11B39,2013-06-25 03:07:00,
2013-06-24 20:12:00,89.8,28.3,29.65,WNW,289,4.0,6.0,11,0.00,,,0.00,0,WeatherCatV1.11B39,2013-06-25 03:12:00,
2013-06-24 20:17:00,89.4,28.0,29.65,West,278,5.0,7.0,11,0.00,,,0.00,0,WeatherCatV1.11B39,2013-06-25 03:17:00,
2013-06-24 20:22:00,89.0,27.7,29.66,WSW,245,1.0,5.0,11,0.00,,,0.00,0,WeatherCatV1.11B39,2013-06-25 03:22:00,
2013-06-24 20:27:00,88.6,29.5,29.66,West,272,3.0,5.0,12,0.00,,,0.00,0,WeatherCatV1.11B39,2013-06-25 03:27:00,
2013-06-24 20:32:00,88.3,29.2,29.66,West,273,2.0,6.0,12,0.00,,,0.00,0,WeatherCatV1.11B39,2013-06-25 03:32:00,
2013-06-24 20:37:00,87.9,30.9,29.66,West,267,3.0,6.0,13,0.00,,,0.00,0,WeatherCatV1.11B39,2013-06-25 03:37:00,
2013-06-24 20:42:00,87.5,32.4,29.67,WNW,282,4.0,6.0,14,0.00,,,0.00,0,WeatherCatV1.11B39,2013-06-25 03:42:00,
2013-06-24 20:47:00,87.2,35.5,29.67,West,264,3.0,8.0,16,0.00,,,0.00,0,WeatherCatV1.11B39,2013-06-25 03:47:00,
2013-06-24 20:52:00,87.1,35.4,29.67,West,261,4.0,5.0,16,0.00,,,0.00,0,WeatherCatV1.11B39,2013-06-25 03:52:00,
2013-06-24 20:57:00,87.1,37.0,29.67,West,276,5.0,8.0,17,0.00,,,0.00,0,WeatherCatV1.11B39,2013-06-25 03:57:00,
2013-06-24 21:01:00,87.1,37.0,29.67,West,267,5.0,7.0,17,0.00,,,0.00,0,WeatherCatV1.11B39,2013-06-25 04:01:00,
2013-06-24 21:06:00,87.3,37.1,29.68,WNW,290,7.0,10.0,17,0.00,,,0.00,0,WeatherCatV1.11B39,2013-06-25 04:06:00,
2013-06-24 21:11:00,87.4,37.2,29.68,West,267,8.0,10.0,17,0.00,,,0.00,0,WeatherCatV1.11B39,2013-06-25 04:11:00,
2013-06-24 21:16:00,87.3,38.6,29.68,West,269,5.0,6.0,18,0.00,,,0.00,0,WeatherCatV1.11B39,2013-06-25 04:16:00,
2013-06-24 21:21:00,87.1,38.4,29.68,SW,236,7.0,7.0,18,0.00,,,0.00,0,WeatherCatV1.11B39,2013-06-25 04:21:00,
2013-06-24 21:26:00,87.0,38.3,29.69,WNW,293,6.0,10.0,18,0.00,,,0.00,0,WeatherCatV1.11B39,2013-06-25 04:26:00,
2013-06-24 21:31:00,86.8,38.2,29.69,West,272,6.0,11.0,18,0.00,,,0.00,0,WeatherCatV1.11B39,2013-06-25 04:31:00,
2013-06-24 21:36:00,86.8,38.2,29.69,West,272,5.0,5.0,18,0.00,,,0.00,0,WeatherCatV1.11B39,2013-06-25 04:36:00,
2013-06-24 21:41:00,86.9,36.8,29.70,West,261,8.0,12.0,17,0.00,,,0.00,0,WeatherCatV1.11B39,2013-06-25 04:41:00,
2013-06-24 21:46:00,86.8,36.7,29.70,WNW,293,4.0,12.0,17,0.00,,,0.00,0,WeatherCatV1.11B39,2013-06-25 04:46:00,
2013-06-24 21:51:00,86.7,36.6,29.70,West,280,5.0,12.0,17,0.00,,,0.00,0,WeatherCatV1.11B39,2013-06-25 04:51:00,
2013-06-24 21:56:00,86.5,36.5,29.70,WSW,255,6.0,9.0,17,0.00,,,0.00,0,WeatherCatV1.11B39,2013-06-25 04:56:00,
2013-06-24 22:01:00,86.3,36.3,29.70,West,280,6.0,10.0,17,0.00,,,0.00,0,WeatherCatV1.11B39,2013-06-25 05:01:00,
2013-06-24 22:06:00,86.1,36.2,29.70,West,265,7.0,10.0,17,0.00,,,0.00,0,WeatherCatV1.11B39,2013-06-25 05:06:00,
2013-06-24 22:11:00,85.9,36.0,29.70,West,267,4.0,7.0,17,0.00,,,0.00,0,WeatherCatV1.11B39,2013-06-25 05:11:00,
2013-06-24 22:16:00,85.7,37.3,29.71,West,259,5.0,6.0,18,0.00,,,0.00,0,WeatherCatV1.11B39,2013-06-25 05:16:00,
2013-06-24 22:21:00,85.2,36.9,29.71,West,261,2.0,5.0,18,0.00,,,0.00,0,WeatherCatV1.11B39,2013-06-25 05:21:00,
2013-06-24 22:26:00,84.6,36.4,29.71,West,265,1.0,4.0,18,0.00,,,0.00,0,WeatherCatV1.11B39,2013-06-25 05:26:00,
2013-06-24 22:31:00,84.0,35.9,29.71,West,267,0.0,1.0,18,0.00,,,0.00,0,WeatherCatV1.11B39,2013-06-25 05:31:00,
2013-06-24 22:36:00,83.2,36.6,29.71,West,267,0.0,0.0,19,0.00,,,0.00,0,WeatherCatV1.11B39,2013-06-25 05:36:00,
2013-06-24 22:41:00,82.4,36.0,29.71,West,267,0.0,0.0,19,0.00,,,0.00,0,WeatherCatV1.11B39,2013-06-25 05:41:00,
2013-06-24 22:46:00,81.8,36.8,29.71,West,267,0.0,1.0,20,0.00,,,0.00,0,WeatherCatV1.11B39,2013-06-25 05:46:00,
2013-06-24 22:51:00,80.8,36.0,29.72,West,267,0.0,0.0,20,0.00,,,0.00,0,WeatherCatV1.11B39,2013-06-25 05:51:00,
2013-06-24 22:56:00,79.8,37.6,29.72,West,267,0.0,0.0,22,0.00,,,0.00,0,WeatherCatV1.11B39,2013-06-25 05:56:00,
2013-06-24 23:01:00,78.5,37.6,29.72,West,267,0.0,0.0,23,0.00,,,0.00,0,WeatherCatV1.11B39,2013-06-25 06:01:00,
2013-06-24 23:06:00,77.4,37.8,29.72,West,267,0.0,0.0,24,0.00,,,0.00,0,WeatherCatV1.11B39,2013-06-25 06:06:00,
2013-06-24 23:11:00,76.6,37.1,29.72,West,267,0.0,1.0,24,0.00,,,0.00,0,WeatherCatV1.11B39,2013-06-25 06:11:00,
2013-06-24 23:16:00,76.2,36.8,29.73,West,267,0.0,0.0,24,0.00,,,0.00,0,WeatherCatV1.11B39,2013-06-25 06:16:00,
2013-06-24 23:21:00,75.7,36.3,29.73,West,267,1.0,1.0,24,0.00,,,0.00,0,WeatherCatV1.11B39,2013-06-25 06:21:00,
2013-06-24 23:26:00,75.0,36.8,29.72,West,267,1.0,1.0,25,0.00,,,0.00,0,WeatherCatV1.11B39,2013-06-25 06:26:00,
2013-06-24 23:31:00,74.9,36.7,29.73,West,267,0.0,1.0,25,0.00,,,0.00,0,WeatherCatV1.11B39,2013-06-25 06:31:00,
2013-06-24 23:36:00,75.2,36.9,29.72,West,267,0.0,1.0,25,0.00,,,0.00,0,WeatherCatV1.11B39,2013-06-25 06:36:00,
2013-06-24 23:41:00,75.0,36.8,29.72,West,267,1.0,1.0,25,0.00,,,0.00,0,WeatherCatV1.11B39,2013-06-25 06:41:00,
2013-06-24 23:46:00,74.8,36.6,29.72,West,267,0.0,1.0,25,0.00,,,0.00,0,WeatherCatV1.11B39,2013-06-25 06:46:00,
2013-06-24 23:51:00,74.5,36.4,29.72,West,267,2.0,2.0,25,0.00,,,0.00,0,WeatherCatV1.11B39,2013-06-25 06:51:00,
2013-06-24 23:56:00,74.2,37.1,29.72,West,267,0.0,0.0,26,0.00,,,0.00,0,WeatherCatV1.11B39,2013-06-25 06:56:00,